createdAt,value
2018-06-28T00:01:15.970Z,4.07
2018-06-28T00:03:47.666Z,5.03
2018-06-28T00:06:19.251Z,5.57
2018-06-28T00:08:50.937Z,4.43
2018-06-28T00:11:22.622Z,7.23
2018-06-28T00:13:54.301Z,5.60
2018-06-28T00:16:25.934Z,4.50
2018-06-28T00:18:57.707Z,4.43
2018-06-28T00:21:29.354Z,4.57
2018-06-28T00:24:01.079Z,4.50
2018-06-28T00:26:32.751Z,4.67
2018-06-28T00:29:04.416Z,4.33
2018-06-28T00:31:36.141Z,4.80
2018-06-28T00:34:07.811Z,6.37
2018-06-28T00:36:39.499Z,4.53
2018-06-28T00:39:12.549Z,4.23
2018-06-28T00:41:44.227Z,4.37
2018-06-28T00:44:16.147Z,5.30
2018-06-28T00:46:47.810Z,5.27
2018-06-28T00:49:19.490Z,4.27
2018-06-28T00:51:51.419Z,4.20
2018-06-28T00:54:23.149Z,4.20
2018-06-28T00:56:54.819Z,4.03
2018-06-28T00:59:26.456Z,5.97
2018-06-28T01:01:57.565Z,5.53
2018-06-28T01:04:28.941Z,4.27
2018-06-28T01:07:00.550Z,5.40
2018-06-28T01:09:32.206Z,4.60
2018-06-28T01:12:03.962Z,4.43
2018-06-28T01:14:35.807Z,4.87
2018-06-28T01:17:07.486Z,4.90
2018-06-28T01:19:39.101Z,5.00
2018-06-28T01:22:10.853Z,4.57
2018-06-28T01:24:42.562Z,5.47
2018-06-28T01:27:14.269Z,5.67
2018-06-28T01:29:45.967Z,5.30
2018-06-28T01:32:17.629Z,7.63
2018-06-28T01:34:49.263Z,5.43
2018-06-28T01:37:20.919Z,6.43
2018-06-28T01:39:52.569Z,5.60
2018-06-28T01:43:52.566Z,5.10
2018-06-28T01:46:24.228Z,5.53
2018-06-28T01:48:55.804Z,5.57
2018-06-28T01:51:27.472Z,5.10
2018-06-28T01:53:59.130Z,6.10
2018-06-28T01:56:30.750Z,6.33
2018-06-28T01:59:02.370Z,5.83
2018-06-28T02:01:34.027Z,5.23
2018-06-28T02:04:05.739Z,5.50
2018-06-28T02:06:37.399Z,5.60
2018-06-28T02:09:11.202Z,6.60
2018-06-28T02:11:42.850Z,5.90
2018-06-28T02:14:14.462Z,6.03
2018-06-28T02:16:46.088Z,6.30
2018-06-28T02:19:17.678Z,7.23
2018-06-28T02:21:49.409Z,7.07
2018-06-28T02:24:21.166Z,7.30
2018-06-28T02:26:52.810Z,7.03
2018-06-28T02:29:24.550Z,7.43
2018-06-28T02:31:56.291Z,7.40
2018-06-28T02:34:27.879Z,7.97
2018-06-28T02:36:59.526Z,7.93
2018-06-28T02:39:31.342Z,9.23
2018-06-28T02:42:02.947Z,9.07
2018-06-28T02:44:34.551Z,7.40
2018-06-28T02:47:06.267Z,8.47
2018-06-28T02:49:37.847Z,8.73
2018-06-28T02:52:09.529Z,8.77
2018-06-28T02:54:41.243Z,8.40
2018-06-28T02:57:12.993Z,8.87
2018-06-28T02:59:44.572Z,8.87
2018-06-28T03:02:16.367Z,9.40
2018-06-28T03:04:48.090Z,10.50
2018-06-28T03:07:19.768Z,9.73
2018-06-28T03:09:51.608Z,9.17
2018-06-28T03:12:23.247Z,10.20
2018-06-28T03:14:54.921Z,10.87
2018-06-28T03:17:26.562Z,10.97
2018-06-28T03:19:58.167Z,10.50
2018-06-28T03:22:29.822Z,10.00
2018-06-28T03:25:01.429Z,11.00
2018-06-28T03:27:33.070Z,11.30
2018-06-28T03:30:05.088Z,11.13
2018-06-28T03:32:36.805Z,11.47
2018-06-28T03:35:08.384Z,11.60
2018-06-28T03:37:40.037Z,11.37
2018-06-28T03:40:11.873Z,12.20
2018-06-28T03:42:43.543Z,13.17
2018-06-28T03:45:15.171Z,11.97
2018-06-28T03:47:46.783Z,11.90
2018-06-28T03:50:18.412Z,13.67
2018-06-28T03:52:50.146Z,13.77
2018-06-28T03:55:21.949Z,12.27
2018-06-28T03:57:53.750Z,10.33
2018-06-28T04:00:25.331Z,10.00
2018-06-28T04:02:57.112Z,10.67
2018-06-28T04:05:28.735Z,9.90
2018-06-28T04:08:00.378Z,11.93
2018-06-28T04:10:32.061Z,13.27
2018-06-28T04:13:03.683Z,13.00
2018-06-28T04:15:35.410Z,12.90
2018-06-28T04:18:07.162Z,11.80
2018-06-28T04:20:38.862Z,12.73
2018-06-28T04:23:10.467Z,12.50
2018-06-28T04:25:42.067Z,13.90
2018-06-28T04:28:13.747Z,12.93
2018-06-28T04:30:45.532Z,12.97
2018-06-28T04:33:17.217Z,13.60
2018-06-28T04:35:48.914Z,13.43
2018-06-28T04:38:20.410Z,14.00
2018-06-28T04:40:52.048Z,14.83
2018-06-28T04:43:23.703Z,12.07
2018-06-28T04:45:55.382Z,12.03
2018-06-28T04:48:27.022Z,11.80
2018-06-28T04:50:58.570Z,11.30
2018-06-28T04:53:30.390Z,11.83
2018-06-28T04:56:02.304Z,12.13
2018-06-28T04:58:34.111Z,13.17
2018-06-28T05:01:05.812Z,12.70
2018-06-28T05:03:37.089Z,12.30
2018-06-28T05:06:08.610Z,11.50
2018-06-28T05:08:40.289Z,10.73
2018-06-28T05:11:12.146Z,11.97
2018-06-28T05:13:43.854Z,12.23
2018-06-28T05:16:15.490Z,11.70
2018-06-28T05:18:47.245Z,11.23
2018-06-28T05:21:18.899Z,12.20
2018-06-28T05:23:50.550Z,10.93
2018-06-28T05:26:22.239Z,11.83
2018-06-28T05:28:53.962Z,12.60
2018-06-28T05:31:25.625Z,12.90
2018-06-28T05:33:57.329Z,13.27
2018-06-28T05:36:30.289Z,12.17
2018-06-28T05:39:02.038Z,16.00
2018-06-28T05:41:33.775Z,13.47
2018-06-28T05:44:05.779Z,13.63
2018-06-28T05:46:37.622Z,12.03
2018-06-28T05:49:09.815Z,14.07
2018-06-28T05:51:41.534Z,13.47
2018-06-28T05:54:13.347Z,13.23
2018-06-28T05:56:45.138Z,19.27
2018-06-28T05:59:16.839Z,14.43
2018-06-28T06:01:48.609Z,12.93
2018-06-28T06:04:20.475Z,12.30
2018-06-28T06:06:52.149Z,12.43
2018-06-28T06:09:23.887Z,12.50
2018-06-28T06:11:55.680Z,12.53
2018-06-28T06:14:27.688Z,11.40
2018-06-28T06:16:59.921Z,12.13
2018-06-28T06:19:31.849Z,11.17
2018-06-28T06:22:03.757Z,12.90
2018-06-28T06:24:35.509Z,11.73
2018-06-28T06:27:07.355Z,11.73
2018-06-28T06:29:39.558Z,13.27
2018-06-28T06:32:11.268Z,11.73
2018-06-28T06:34:43.089Z,11.10
2018-06-28T06:37:14.959Z,10.90
2018-06-28T06:39:46.667Z,9.87
2018-06-28T06:42:19.802Z,10.30
2018-06-28T06:44:51.610Z,9.67
2018-06-28T06:47:23.367Z,11.00
2018-06-28T06:49:55.290Z,9.73
2018-06-28T06:52:26.942Z,8.83
2018-06-28T06:54:58.792Z,8.10
2018-06-28T06:57:30.636Z,8.93
2018-06-28T07:00:02.453Z,9.83
2018-06-28T07:02:34.119Z,9.03
2018-06-28T07:05:06.130Z,9.77
2018-06-28T07:07:37.942Z,9.27
2018-06-28T07:10:10.066Z,10.23
2018-06-28T07:12:42.088Z,9.27
2018-06-28T07:15:13.968Z,9.33
2018-06-28T07:17:45.687Z,9.57
2018-06-28T07:20:17.433Z,10.03
2018-06-28T07:22:49.197Z,10.17
2018-06-28T07:25:21.562Z,9.00
2018-06-28T07:27:53.362Z,8.13
2018-06-28T07:30:25.159Z,8.23
2018-06-28T07:32:56.876Z,8.60
2018-06-28T07:35:28.701Z,8.33
2018-06-28T07:38:00.427Z,8.20
2018-06-28T07:40:32.170Z,7.53
2018-06-28T07:43:04.489Z,7.00
2018-06-28T07:45:36.127Z,7.77
2018-06-28T07:48:08.410Z,6.93
2018-06-28T07:50:40.142Z,6.70
2018-06-28T07:53:11.826Z,6.97
2018-06-28T07:55:43.570Z,6.93
2018-06-28T07:58:15.495Z,8.10
2018-06-28T08:00:47.180Z,7.90
2018-06-28T08:03:18.851Z,6.63
2018-06-28T08:05:50.530Z,6.87
2018-06-28T08:08:23.153Z,7.00
2018-06-28T08:10:55.631Z,6.20
2018-06-28T08:13:27.269Z,8.33
2018-06-28T08:15:58.907Z,7.57
2018-06-28T08:18:30.416Z,5.60
2018-06-28T08:21:02.090Z,6.30
2018-06-28T08:23:34.171Z,4.90
2018-06-28T08:26:06.028Z,4.87
2018-06-28T08:28:37.653Z,4.17
2018-06-28T08:31:09.425Z,4.27
2018-06-28T08:33:41.282Z,5.37
2018-06-28T08:36:13.033Z,4.40
2018-06-28T08:38:44.680Z,4.00
2018-06-28T08:41:16.549Z,3.40
2018-06-28T08:43:48.215Z,4.73
2018-06-28T08:46:20.744Z,3.07
2018-06-28T08:48:52.381Z,2.80
2018-06-28T08:51:24.090Z,2.80
2018-06-28T08:53:56.179Z,2.80
2018-06-28T08:56:27.878Z,2.70
2018-06-28T08:58:59.888Z,3.27
2018-06-28T09:01:31.805Z,4.27
2018-06-28T09:04:03.698Z,5.30
2018-06-28T09:06:35.570Z,5.20
2018-06-28T09:09:11.691Z,5.30
2018-06-28T09:11:43.462Z,5.43
2018-06-28T09:14:15.092Z,3.47
2018-06-28T09:16:46.773Z,3.63
2018-06-28T09:19:18.499Z,4.03
2018-06-28T09:21:50.239Z,3.47
2018-06-28T09:24:22.053Z,3.50
2018-06-28T09:26:57.332Z,3.73
2018-06-28T09:29:29.061Z,4.07
2018-06-28T09:32:00.931Z,3.63
2018-06-28T09:34:32.785Z,3.10
2018-06-28T09:37:04.587Z,2.97
2018-06-28T09:39:36.349Z,2.80
2018-06-28T09:42:08.896Z,3.27
2018-06-28T09:44:40.585Z,3.23
2018-06-28T09:47:12.349Z,2.93
2018-06-28T09:49:44.023Z,2.40
2018-06-28T09:52:15.749Z,3.20
2018-06-28T09:54:47.077Z,2.43
2018-06-28T09:57:18.598Z,2.53
2018-06-28T09:59:50.321Z,2.70
2018-06-28T10:02:21.999Z,2.83
2018-06-28T10:04:53.728Z,2.53
2018-06-28T10:07:25.484Z,2.60
2018-06-28T10:09:57.139Z,2.23
2018-06-28T10:12:28.858Z,2.70
2018-06-28T10:15:00.567Z,2.90
2018-06-28T10:17:32.350Z,2.47
2018-06-28T10:20:04.061Z,2.30
2018-06-28T10:22:35.709Z,2.50
2018-06-28T10:25:07.411Z,1.97
2018-06-28T10:27:39.217Z,2.40
2018-06-28T10:30:11.530Z,2.53
2018-06-28T10:32:43.411Z,2.50
2018-06-28T10:35:15.241Z,2.97
2018-06-28T10:37:46.916Z,2.40
2018-06-28T10:40:18.561Z,2.47
2018-06-28T10:42:50.284Z,2.30
2018-06-28T10:45:22.162Z,2.60
2018-06-28T10:47:54.037Z,2.40
2018-06-28T10:50:25.813Z,2.60
2018-06-28T10:52:57.656Z,2.60
2018-06-28T10:55:29.362Z,2.83
2018-06-28T10:58:01.707Z,2.90
2018-06-28T11:00:33.425Z,2.73
2018-06-28T11:03:06.572Z,3.30
2018-06-28T11:05:38.707Z,4.63
2018-06-28T11:08:10.582Z,2.63
2018-06-28T11:10:43.479Z,3.17
2018-06-28T11:13:16.617Z,3.50
2018-06-28T11:15:48.832Z,3.30
2018-06-28T11:18:20.506Z,2.80
2018-06-28T11:20:52.246Z,3.60
2018-06-28T11:23:24.118Z,2.70
2018-06-28T11:25:55.802Z,3.57
2018-06-28T11:28:27.628Z,3.23
2018-06-28T11:31:01.775Z,4.00
2018-06-28T11:33:35.253Z,3.23
2018-06-28T11:36:16.340Z,3.00
2018-06-28T11:38:50.086Z,2.77
2018-06-28T11:41:23.966Z,4.03
2018-06-28T11:44:11.599Z,2.77
2018-06-28T11:46:52.918Z,3.30
2018-06-28T11:55:26.076Z,2.70
2018-06-28T11:58:02.262Z,4.03
2018-06-28T12:00:35.074Z,4.00
2018-06-28T12:03:10.107Z,3.30
2018-06-28T12:05:43.049Z,2.80
2018-06-28T12:08:15.586Z,2.70
2018-06-28T12:10:48.599Z,11.87
2018-06-28T12:13:22.438Z,6.63
2018-06-28T12:15:56.328Z,4.60
2018-06-28T12:18:28.689Z,4.17
2018-06-28T12:21:03.508Z,8.83
2018-06-28T12:23:39.676Z,6.73
2018-06-28T12:26:30.164Z,8.10
2018-06-28T12:29:11.634Z,5.53
2018-06-28T12:31:48.971Z,5.93
2018-06-28T12:34:26.112Z,5.33
2018-06-28T12:37:05.639Z,4.37
2018-06-28T12:39:37.386Z,4.60
2018-06-28T12:42:10.010Z,5.07
2018-06-28T12:44:42.171Z,5.93
2018-06-28T12:47:51.823Z,4.30
2018-06-28T12:50:23.573Z,3.77
2018-06-28T12:52:57.713Z,3.40
2018-06-28T12:56:43.929Z,2.90
2018-06-28T12:59:19.202Z,3.63
2018-06-28T13:01:51.666Z,3.37
2018-06-28T13:04:23.702Z,3.60
2018-06-28T13:06:55.427Z,6.03
2018-06-28T13:09:27.269Z,4.00
2018-06-28T13:11:59.389Z,5.23
2018-06-28T13:14:31.207Z,2.77
2018-06-28T13:17:03.671Z,3.23
2018-06-28T13:19:35.538Z,3.20
2018-06-28T13:22:07.416Z,8.07
2018-06-28T13:24:39.512Z,3.70
2018-06-28T13:27:11.308Z,3.80
2018-06-28T13:29:43.305Z,3.40
2018-06-28T13:32:15.210Z,3.60
2018-06-28T13:34:47.350Z,4.20
2018-06-28T13:37:18.660Z,4.50
2018-06-28T13:39:50.429Z,7.67
2018-06-28T13:42:22.984Z,5.80
2018-06-28T13:44:55.293Z,6.00
2018-06-28T13:47:27.293Z,5.50
2018-06-28T13:49:59.200Z,6.10
2018-06-28T13:52:31.746Z,5.20
2018-06-28T13:55:04.490Z,5.07
2018-06-28T13:57:36.732Z,6.73
2018-06-28T14:00:08.542Z,5.77
2018-06-28T14:02:40.914Z,4.53
2018-06-28T14:05:14.047Z,4.03
2018-06-28T14:07:46.603Z,4.30
2018-06-28T14:10:18.399Z,3.00
2018-06-28T14:12:50.803Z,3.80
2018-06-28T14:15:22.601Z,5.70
2018-06-28T14:17:54.287Z,3.73
2018-06-28T14:20:26.076Z,3.50
2018-06-28T14:22:57.803Z,3.70
2018-06-28T14:25:29.572Z,3.20
2018-06-28T14:28:01.226Z,3.90
2018-06-28T14:30:32.878Z,2.77
2018-06-28T14:33:04.619Z,2.50
2018-06-28T14:35:36.450Z,2.70
2018-06-28T14:38:08.101Z,3.60
2018-06-28T14:40:39.859Z,3.30
2018-06-28T14:43:11.627Z,3.30
2018-06-28T14:45:43.829Z,4.03
2018-06-28T14:48:15.447Z,2.60
2018-06-28T14:50:47.110Z,3.00
2018-06-28T14:53:18.875Z,2.63
2018-06-28T14:55:50.585Z,3.20
2018-06-28T14:58:22.224Z,3.67
2018-06-28T15:00:54.267Z,3.60
2018-06-28T15:03:26.100Z,4.13
2018-06-28T15:05:57.733Z,4.07
2018-06-28T15:08:29.333Z,4.30
2018-06-28T15:11:01.078Z,5.30
2018-06-28T15:13:32.756Z,7.50
2018-06-28T15:16:04.446Z,4.93
2018-06-28T15:18:36.176Z,4.57
2018-06-28T15:21:08.430Z,5.00
2018-06-28T15:23:40.069Z,4.07
2018-06-28T15:26:11.950Z,5.50
2018-06-28T15:28:44.190Z,4.50
2018-06-28T15:31:16.021Z,5.57
2018-06-28T15:33:47.885Z,7.43
2018-06-28T15:36:19.761Z,6.50
2018-06-28T15:38:51.364Z,6.27
2018-06-28T15:41:22.983Z,5.13
2018-06-28T15:43:54.605Z,5.57
2018-06-28T15:46:26.275Z,4.50
2018-06-28T15:48:57.998Z,3.67
2018-06-28T15:51:30.047Z,4.00
2018-06-28T15:54:02.162Z,2.60
2018-06-28T15:56:34.137Z,2.20
2018-06-28T15:59:06.028Z,2.60
2018-06-28T16:01:37.719Z,2.40
2018-06-28T16:04:09.462Z,2.17
2018-06-28T16:06:41.346Z,2.20
2018-06-28T16:09:13.066Z,2.33
2018-06-28T16:11:44.735Z,2.77
2018-06-28T16:14:16.343Z,2.90
2018-06-28T16:16:47.996Z,2.60
2018-06-28T16:19:19.759Z,2.63
2018-06-28T16:21:52.026Z,2.50
2018-06-28T16:24:23.656Z,3.00
2018-06-28T16:26:55.597Z,2.73
2018-06-28T16:29:27.261Z,3.20
2018-06-28T16:31:59.154Z,3.70
2018-06-28T16:34:30.919Z,3.27
2018-06-28T16:37:03.730Z,3.40
2018-06-28T16:39:35.951Z,3.87
2018-06-28T16:42:07.968Z,4.40
2018-06-28T16:44:39.757Z,3.70
2018-06-28T16:47:11.464Z,3.07
2018-06-28T16:49:43.321Z,3.40
2018-06-28T16:52:15.101Z,4.20
2018-06-28T16:54:46.828Z,3.80
2018-06-28T16:57:18.518Z,4.23
2018-06-28T16:59:50.472Z,4.33
2018-06-28T17:02:22.471Z,4.20
2018-06-28T17:04:54.694Z,4.90
2018-06-28T17:07:26.576Z,5.30
2018-06-28T17:09:58.650Z,4.63
2018-06-28T17:12:32.085Z,5.20
2018-06-28T17:15:04.209Z,6.40
2018-06-28T17:17:36.193Z,5.50
2018-06-28T17:20:08.334Z,7.10
2018-06-28T17:22:40.462Z,7.23
2018-06-28T17:25:12.518Z,7.43
2018-06-28T17:27:44.577Z,7.30
2018-06-28T17:30:16.628Z,9.07
2018-06-28T17:32:48.716Z,8.60
2018-06-28T17:35:20.641Z,9.60
2018-06-28T17:37:52.625Z,8.40
2018-06-28T17:40:24.566Z,8.07
2018-06-28T17:42:56.555Z,6.17
2018-06-28T17:45:28.547Z,5.50
2018-06-28T17:48:00.504Z,5.73
2018-06-28T17:50:32.479Z,5.30
2018-06-28T17:53:04.310Z,5.90
2018-06-28T17:55:36.300Z,4.97
2018-06-28T17:58:08.162Z,4.20
2018-06-28T18:00:40.142Z,5.10
2018-06-28T18:03:12.025Z,5.40
2018-06-28T18:05:43.904Z,4.60
2018-06-28T18:08:15.769Z,8.07
2018-06-28T18:10:47.703Z,7.07
2018-06-28T18:13:19.501Z,6.27
2018-06-28T18:15:51.564Z,6.57
2018-06-28T18:18:23.397Z,7.17
2018-06-28T18:20:55.461Z,5.80
2018-06-28T18:23:27.705Z,6.30
2018-06-28T18:25:59.574Z,4.50
2018-06-28T18:28:31.387Z,4.33
2018-06-28T18:31:03.273Z,6.80
2018-06-28T18:33:35.149Z,7.70
2018-06-28T18:36:07.017Z,4.93
2018-06-28T18:38:39.170Z,5.10
2018-06-28T18:41:11.267Z,4.13
2018-06-28T18:43:43.110Z,7.37
2018-06-28T18:46:15.173Z,9.67
2018-06-28T18:48:47.664Z,8.47
2018-06-28T18:51:19.543Z,5.80
2018-06-28T18:53:51.372Z,5.17
2018-06-28T18:56:23.102Z,7.03
2018-06-28T18:58:54.954Z,3.80
2018-06-28T19:01:26.707Z,3.70
2018-06-28T19:03:58.511Z,3.63
2018-06-28T19:06:30.590Z,4.23
2018-06-28T19:09:02.428Z,4.60
2018-06-28T19:11:34.381Z,4.80
2018-06-28T19:14:11.533Z,4.33
2018-06-28T19:16:48.379Z,3.30
2018-06-28T19:19:20.332Z,3.73
2018-06-28T19:21:57.206Z,4.60
2018-06-28T19:24:29.046Z,6.27
2018-06-28T19:27:00.881Z,7.20
2018-06-28T19:29:38.613Z,6.13
2018-06-28T19:32:15.565Z,6.07
2018-06-28T19:34:47.380Z,6.20
2018-06-28T19:37:24.539Z,5.73
2018-06-28T19:40:01.390Z,5.67
2018-06-28T19:42:38.458Z,5.37
2018-06-28T19:45:10.306Z,4.63
2018-06-28T19:47:42.108Z,5.10
2018-06-28T19:50:19.000Z,4.17
2018-06-28T19:53:09.235Z,3.90
2018-06-28T19:55:41.053Z,4.57
2018-06-28T19:58:12.837Z,4.03
2018-06-28T20:00:49.914Z,6.43
2018-06-28T20:03:26.943Z,5.03
2018-06-28T20:05:58.550Z,4.30
2018-06-28T20:08:30.167Z,4.50
2018-06-28T20:11:01.837Z,5.00
2018-06-28T20:13:38.750Z,3.97
2018-06-28T20:16:15.596Z,5.60
2018-06-28T20:18:52.482Z,4.60
2018-06-28T20:21:24.163Z,5.30
2018-06-28T20:23:55.884Z,5.90
2018-06-28T20:26:32.617Z,7.17
2018-06-28T20:29:09.589Z,6.50
2018-06-28T20:32:48.501Z,5.93
2018-06-28T20:35:20.459Z,7.13
2018-06-28T20:37:52.301Z,5.43
2018-06-28T20:40:24.268Z,5.70
2018-06-28T20:42:56.187Z,6.73
2018-06-28T20:45:28.121Z,6.73
2018-06-28T20:48:00.504Z,6.13
2018-06-28T20:50:31.899Z,6.47
2018-06-28T20:53:03.612Z,7.10
2018-06-28T20:55:36.295Z,6.43
2018-06-28T20:58:08.265Z,6.00
2018-06-28T21:00:40.401Z,6.23
2018-06-28T21:03:12.009Z,5.50
2018-06-28T21:05:43.982Z,6.33
2018-06-28T21:08:15.808Z,5.13
2018-06-28T21:10:47.673Z,5.67
2018-06-28T21:13:19.515Z,6.83
2018-06-28T21:15:50.866Z,6.50
2018-06-28T21:18:22.419Z,6.70
2018-06-28T21:20:54.246Z,6.80
2018-06-28T21:23:26.108Z,6.43
2018-06-28T21:25:57.846Z,6.70
2018-06-28T21:28:29.729Z,6.57
2018-06-28T21:31:01.822Z,6.37
2018-06-28T21:33:33.847Z,6.83
2018-06-28T21:36:05.768Z,7.80
2018-06-28T21:38:37.746Z,8.13
2018-06-28T21:41:09.526Z,8.23
2018-06-28T21:43:41.269Z,7.80
2018-06-28T21:46:13.030Z,6.97
2018-06-28T21:48:44.865Z,7.13
2018-06-28T21:51:16.826Z,9.93
2018-06-28T21:53:48.772Z,8.90
2018-06-28T21:56:20.706Z,9.63
2018-06-28T21:58:52.590Z,8.70
2018-06-28T22:01:24.437Z,8.80
2018-06-28T22:03:56.201Z,8.53
2018-06-28T22:06:27.978Z,7.37
2018-06-28T22:08:59.770Z,6.43
2018-06-28T22:11:31.355Z,6.03
2018-06-28T22:14:03.382Z,6.70
2018-06-28T22:16:35.117Z,5.90
2018-06-28T22:19:06.867Z,5.43
2018-06-28T22:21:38.711Z,5.30
2018-06-28T22:24:10.535Z,6.43
2018-06-28T22:26:42.789Z,8.20
2018-06-28T22:29:14.537Z,8.80
2018-06-28T22:31:46.412Z,8.13
2018-06-28T22:34:18.269Z,8.50
2018-06-28T22:36:50.092Z,9.03
2018-06-28T22:39:21.821Z,9.03
2018-06-28T22:41:53.630Z,9.00
2018-06-28T22:44:25.516Z,7.63
2018-06-28T22:46:57.262Z,7.40
2018-06-28T22:49:29.026Z,4.97
2018-06-28T22:52:00.874Z,4.37
2018-06-28T22:54:32.603Z,6.20
2018-06-28T22:57:04.542Z,7.03
2018-06-28T22:59:36.312Z,7.40
2018-06-28T23:02:08.225Z,7.57
2018-06-28T23:04:40.477Z,8.20
2018-06-28T23:07:12.304Z,6.43
2018-06-28T23:09:44.026Z,6.80
2018-06-28T23:12:15.852Z,7.90
2018-06-28T23:14:47.572Z,7.83
2018-06-28T23:17:19.266Z,9.13
2018-06-28T23:19:51.178Z,8.90
2018-06-28T23:22:42.675Z,7.57
2018-06-28T23:25:15.514Z,5.77
2018-06-28T23:27:48.101Z,5.53
2018-06-28T23:30:20.059Z,5.50
2018-06-28T23:32:51.792Z,5.00
2018-06-28T23:35:23.508Z,4.67
2018-06-28T23:37:55.265Z,5.00
2018-06-28T23:40:26.926Z,7.70
2018-06-28T23:42:58.689Z,6.43
2018-06-28T23:45:30.366Z,8.53
2018-06-28T23:48:03.282Z,7.20
2018-06-28T23:50:35.092Z,7.50
2018-06-28T23:53:06.887Z,7.77
2018-06-28T23:55:38.586Z,7.80
2018-06-28T23:58:10.316Z,7.87
